Airport View

Enter AWOS ICAO identifier for current METAR.

ex. KFNL

KVES 261150Z AUTO 24006KT 7SM CLR 21/18 A3010 RMK AO2

26 Jun 2019 12:15

Frequency: 125.9

Phone: 937-526-3154

Other Area AWOS: KAXV - KDAY - KRID - KFFO

TAF KDAY 261132Z 2612/2712 21009KT P6SM BKN150 FM261400 25009KT P6SM BKN150 FM261800 25009KT P6SM SCT045 FM262300 25009KT P6SM VCTS BKN050CB FM270200 22005KT P6SM SCT070